DW8567 Weather Reports


time (UTC)temp
F
wind
direction
speed
knots
gust
knots
rain 1hr
in
rain 24hr
in
rain mn
in
humidity
%
barometer
mb
20260510225513 65 350 5.2 9.6 0.00 0.15 0.15 82 1013.7
20260510225011 66 341 4.3 7.8 0.01 0.15 0.15 83 1013.6
20260510224511 66 23 4.3 7.8 0.01 0.15 0.15 82 1013.5
20260510224009 66 347 4.3 7.8 0.01 0.15 0.15 81 1013.4
20260510223510 66 355 6.1 10.4 0.02 0.15 0.15 81 1013.3
20260510223242 66 328 6.1 10.4 0.02 0.15 0.15 81 1013.3
20260510222741 66 346 6.1 10.4 0.02 0.15 0.15 81 1013.2
20260510222242 67 17 6.1 11.3 0.02 0.15 0.15 79 1013.3
20260510221508 67 326 4.3 11.3 0.02 0.15 0.15 78 1013.4
20260510221009 67 345 3.5 7.8 0.02 0.15 0.15 80 1013.5
20260510220509 67 346 2.6 8.7 0.02 0.15 0.15 78 1013.6
20260510220240 68 306 3.5 8.7 0.02 0.15 0.15 77 1013.6
20260510215509 68 309 4.3 8.7 0.02 0.15 0.15 76 1013.8
20260510215008 69 338 5.2 9.6 0.02 0.14 0.14 75 1013.6
20260510214509 69 294 4.3 9.6 0.03 0.14 0.14 74 1013.9
20260510214009 69 285 3.5 7.0 0.09 0.14 0.14 75 1013.8
20260510213508 69 257 4.3 8.7 0.13 0.13 0.13 72 1013.4
20260510213008 69 300 4.3 8.7 0.13 0.13 0.13 70 1013.2
20260510212742 69 319 4.3 7.8 0.13 0.13 0.13 74 1013.0
20260510212005 69 350 3.5 7.8 0.13 0.13 0.13 78 1012.9
20260510211506 69 5 1.7 7.0 0.13 0.13 0.13 81 1012.7
20260510211007 69 206 0.9 2.6 0.13 0.13 0.13 82 1012.7
20260510210508 69 206 0.9 2.6 0.13 0.13 0.13 80 1012.8
20260510210006 69 206 0.9 3.5 0.13 0.13 0.13 77 1012.7
20260510205508 69 206 2.6 7.8 0.13 0.13 0.13 74 1012.7
20260510205237 70 206 6.1 17.4 0.12 0.12 0.12 70 1012.8
20260510204506 72 232 5.2 17.4 0.11 0.11 0.11 64 1012.8
20260510204238 75 203 2.6 8.7 0.05 0.05 0.05 61 1012.7
20260510203502 76 276 1.7 6.1 0.00 0.00 0.00 58 1012.5
20260510203235 77 276 2.6 6.1 0.00 0.00 0.00 54 1012.2
20260510202503 77 321 2.6 6.1 0.00 0.00 0.00 50 1012.3
20260510202003 77 277 3.5 9.6 0.00 0.00 0.00 48 1012.1
20260510201735 78 245 6.1 11.3 0.00 0.00 0.00 47 1012.1
20260510201003 78 255 5.2 13.0 0.00 0.00 0.00 46 1012.2
20260510200503 78 250 5.2 13.0 0.00 0.00 0.00 46 1012.2
20260510200009 79 244 6.1 13.0 0.00 0.00 0.00 45 1012.3
20260510200003 79 242 6.1 13.0 0.00 0.00 0.00 45 1012.3
20260510195003 79 271 5.2 12.2 0.00 0.00 0.00 44 1012.3
20260510194503 79 311 5.2 8.7 0.00 0.00 0.00 46 1012.3
20260510194004 79 315 4.3 8.7 0.00 0.00 0.00 47 1012.4
20260510193503 78 313 3.5 8.7 0.00 0.00 0.00 46 1012.5
20260510193004 78 299 3.5 8.7 0.00 0.00 0.00 45 1012.5
20260510192503 78 296 3.5 8.7 0.00 0.00 0.00 45 1012.6
20260510192233 78 271 3.5 8.7 0.00 0.00 0.00 47 1012.6
20260510191501 77 319 4.3 8.7 0.00 0.00 0.00 47 1012.6
20260510191001 77 240 5.2 10.4 0.00 0.00 0.00 46 1012.7
20260510190500 77 215 4.3 10.4 0.00 0.00 0.00 46 1012.8
20260510190233 77 271 5.2 10.4 0.00 0.00 0.00 48 1012.7
20260510185500 77 267 7.0 12.2 0.00 0.00 0.00 48 1012.8
20260510184959 77 297 6.1 12.2 0.00 0.00 0.00 48 1012.9
20260510184502 77 284 6.1 12.2 0.00 0.00 0.00 49 1012.9
20260510184233 77 239 6.1 12.2 0.00 0.00 0.00 48 1012.9
20260510183501 77 249 4.3 11.3 0.00 0.00 0.00 48 1012.8
20260510182959 77 246 3.5 10.4 0.00 0.00 0.00 49 1012.7
20260510182459 77 283 4.3 10.4 0.00 0.00 0.00 50 1012.7
20260510182000 77 281 4.3 10.4 0.00 0.00 0.00 50 1012.7
20260510181954 77 294 3.5 8.7 0.00 0.00 0.00 50 1012.7
20260510180947 77 281 3.5 7.8 0.00 0.00 0.00 49 1012.8
20260510180710 78 346 2.6 7.0 0.00 0.00 0.00 50 1012.8
20260510175934 78 209 2.6 7.0 0.00 0.00 0.00 47 1012.7
20260510175428 78 199 2.6 7.0 0.00 0.00 0.00 48 1012.7
20260510175153 79 0 4.3 13.9 0.00 0.00 0.00 46 1012.8
20260510174416 79 294 5.2 13.9 0.00 0.00 0.00 52 1012.7
20260510173910 79 318 4.3 13.9 0.00 0.00 0.00 50 1012.5
20260510173635 78 137 4.3 13.9 0.00 0.00 0.00 50 1012.6
20260510172912 78 98 3.5 8.7 0.00 0.00 0.00 49 1012.7
20260510172351 77 101 3.5 8.7 0.00 0.00 0.00 53 1012.7
20260510171848 77 146 3.5 8.7 0.00 0.00 0.00 50 1012.7
20260510171348 77 101 2.6 8.7 0.00 0.00 0.00 51 1012.7
20260510170848 77 102 1.7 8.7 0.00 0.00 0.00 52 1012.7
20260510170350 77 98 2.6 7.0 0.00 0.00 0.00 53 1012.8
20260510165847 76 161 3.5 7.0 0.00 0.00 0.00 55 1012.9
20260510165349 76 171 3.5 7.8 0.00 0.00 0.00 56 1012.9
20260510164848 76 101 3.5 7.8 0.00 0.00 0.00 56 1012.9
20260510164618 75 81 3.5 6.1 0.00 0.00 0.00 58 1012.9
20260510163855 75 142 3.5 7.0 0.00 0.00 0.00 58 1012.9
20260510163347 75 125 3.5 7.8 0.00 0.00 0.00 60 1013.0
20260510162848 75 140 3.5 7.8 0.00 0.00 0.00 58 1013.1
20260510162349 75 130 2.6 7.0 0.00 0.00 0.00 61 1013.0
20260510161845 74 194 3.5 7.0 0.00 0.00 0.00 60 1013.0
20260510161344 74 143 3.5 7.0 0.00 0.00 0.00 61 1012.9
20260510160844 74 126 3.5 7.0 0.00 0.00 0.00 62 1012.9
20260510160616 73 114 3.5 6.1 0.00 0.00 0.00 62 1013.0
20260510155845 73 184 2.6 6.1 0.00 0.00 0.00 63 1013.1
20260510155339 73 168 2.6 6.1 0.00 0.00 0.00 64 1013.1
20260510154835 72 148 2.6 6.1 0.00 0.00 0.00 66 1013.1
20260510154328 71 155 2.6 6.1 0.00 0.00 0.00 65 1013.1
20260510153822 71 105 1.7 6.1 0.00 0.00 0.00 66 1013.2
20260510153546 70 44 1.7 5.2 0.00 0.00 0.00 68 1013.3
20260510152810 69 96 2.6 5.2 0.00 0.00 0.00 68 1013.3
20260510152306 69 159 1.7 5.2 0.00 0.00 0.00 71 1013.3
20260510151758 68 78 1.7 4.3 0.00 0.00 0.00 75 1013.4
20260510151252 67 338 1.7 5.2 0.00 0.00 0.00 73 1013.4
20260510151017 66 322 1.7 5.2 0.00 0.00 0.00 72 1013.5
20260510150239 66 165 2.6 5.2 0.00 0.00 0.00 74 1013.5
20260510145733 65 92 2.6 5.2 0.00 0.00 0.00 76 1013.5
20260510145227 65 113 2.6 6.1 0.00 0.00 0.00 77 1013.5
20260510144722 64 168 1.7 6.1 0.00 0.00 0.00 78 1013.5
20260510144215 64 153 1.7 5.2 0.00 0.00 0.00 78 1013.4
20260510143710 64 155 2.6 7.0 0.00 0.00 0.00 79 1013.6
20260510143204 63 138 1.7 7.0 0.00 0.00 0.00 79 1013.4
20260510142657 63 128 0.9 5.2 0.00 0.00 0.00 82 1013.5
20260510142151 62 18 1.7 3.5 0.00 0.00 0.00 82 1013.5
20260510141645 62 175 1.7 3.5 0.00 0.00 0.00 81 1013.5
20260510141139 62 85 1.7 5.2 0.00 0.00 0.00 83 1013.5
20260510140636 62 107 2.6 5.2 0.00 0.00 0.00 83 1013.5
20260510140629 61 136 1.7 5.2 0.00 0.00 0.00 84 1013.5
20260510135621 60 76 1.7 3.5 0.00 0.00 0.00 86 1013.5
20260510135115 60 106 0.9 3.5 0.00 0.00 0.00 86 1013.5
20260510134609 59 76 0.9 3.5 0.00 0.00 0.00 87 1013.4
20260510134103 59 107 0.9 3.5 0.00 0.00 0.00 88 1013.4
20260510133557 58 107 1.7 3.5 0.00 0.00 0.00 88 1013.3
20260510133323 58 92 1.7 3.5 0.00 0.00 0.00 89 1013.3
20260510132545 58 50 1.7 3.5 0.00 0.00 0.00 89 1013.3
20260510132040 57 46 0.9 2.6 0.00 0.00 0.00 91 1013.5
20260510131533 57 355 0.9 2.6 0.00 0.00 0.00 91 1013.5
20260510131027 56 71 0.0 3.5 0.00 0.00 0.00 92 1013.5
20260510130524 56 267 0.9 3.5 0.00 0.00 0.00 92 1013.5
20260510130517 56 267 0.9 3.5 0.00 0.00 0.00 91 1013.6
20260510125509 56 267 0.9 3.5 0.00 0.00 0.00 92 1013.7
20260510125003 55 304 0.9 2.6 0.00 0.00 0.00 94 1013.5
20260510124728 55 157 0.9 2.6 0.00 0.00 0.00 94 1013.4
20260510123951 55 157 0.9 2.6 0.00 0.00 0.00 93 1013.3
20260510123446 54 157 0.9 2.6 0.00 0.00 0.00 94 1013.2
20260510122939 54 157 1.7 5.2 0.00 0.00 0.00 93 1013.2
20260510122433 54 157 1.7 5.2 0.00 0.00 0.00 94 1013.0
20260510121927 54 136 0.9 2.6 0.00 0.00 0.00 94 1013.1
20260510121421 54 136 1.7 5.2 0.00 0.00 0.00 95 1013.0
20260510120915 54 136 1.7 5.2 0.00 0.00 0.00 94 1012.9
20260510120641 54 21 1.7 4.3 0.00 0.00 0.00 95 1013.2
20260510115903 53 290 0.9 3.5 0.00 0.00 0.00 94 1013.2
20260510115357 53 212 0.9 2.6 0.00 0.00 0.00 94 1013.1
20260510114851 53 63 1.7 3.5 0.00 0.00 0.00 94 1012.9
20260510114346 53 63 1.7 3.5 0.00 0.00 0.00 94 1012.8
20260510113839 53 34 1.7 3.5 0.00 0.00 0.00 95 1012.8
20260510113333 53 0 1.7 4.3 0.00 0.00 0.00 95 1012.7
20260510112828 53 355 3.5 5.2 0.00 0.00 0.00 95 1012.8
20260510112321 53 342 3.5 6.1 0.00 0.00 0.00 95 1012.7
20260510111815 53 0 2.6 6.1 0.00 0.00 0.00 95 1012.8
20260510111311 53 5 1.7 4.3 0.00 0.00 0.00 96 1012.7
20260510110811 52 5 0.9 3.5 0.00 0.00 0.00 95 1012.6
20260510110310 52 5 0.9 3.5 0.00 0.00 0.00 95 1012.5
20260510105810 52 5 1.7 5.2 0.00 0.00 0.00 95 1012.4
20260510105309 52 5 1.7 5.2 0.00 0.00 0.00 95 1012.2
20260510104808 52 20 1.7 5.2 0.00 0.00 0.00 95 1012.2
20260510104309 52 38 2.6 5.2 0.00 0.00 0.00 95 1012.2
20260510103808 52 13 2.6 5.2 0.00 0.00 0.00 95 1012.1
20260510103307 52 5 1.7 5.2 0.00 0.00 0.00 95 1012.2
20260510102807 52 350 1.7 5.2 0.00 0.00 0.00 95 1012.0
20260510102541 51 355 0.9 4.3 0.00 0.00 0.00 95 1012.1
20260510101807 51 16 0.9 2.6 0.00 0.00 0.00 95 1012.0
20260510101305 51 16 1.7 3.5 0.00 0.00 0.00 95 1011.9
20260510100804 51 16 1.7 3.5 0.00 0.00 0.00 95 1011.9
20260510100301 51 16 1.7 3.5 0.00 0.00 0.00 96 1012.0
20260510100033 51 16 2.6 5.2 0.00 0.00 0.00 96 1011.9
20260510095305 51 19 3.5 7.0 0.00 0.00 0.00 96 1012.0
20260510094759 51 22 3.5 7.0 0.00 0.00 0.00 95 1011.9
20260510094259 51 9 3.5 7.0 0.00 0.00 0.00 95 1011.8
20260510093755 51 340 3.5 7.0 0.00 0.00 0.00 96 1011.8
20260510093520 51 346 3.5 7.0 0.00 0.00 0.00 96 1011.8
20260510092742 51 13 3.5 7.0 0.00 0.00 0.00 96 1011.8
20260510092236 51 5 3.5 7.8 0.00 0.00 0.00 95 1011.8
20260510091730 51 321 6.1 13.0 0.00 0.00 0.00 95 1011.9
20260510091224 50 20 5.2 13.0 0.00 0.00 0.00 95 1011.5
20260510090717 50 317 5.2 11.3 0.00 0.00 0.00 96 1011.9
20260510090211 50 338 6.1 11.3 0.00 0.00 0.00 96 1012.0
20260510085706 50 37 6.1 12.2 0.00 0.00 0.00 95 1011.5
20260510085437 50 355 5.2 12.2 0.00 0.00 0.00 95 1011.5
20260510084936 50 319 2.6 10.4 0.00 0.00 0.00 95 1011.8
20260510084204 50 5 0.9 3.5 0.00 0.00 0.00 95 1011.4
20260510083706 49 5 1.7 3.5 0.00 0.00 0.00 95 1011.4
20260510083206 50 5 2.6 4.3 0.00 0.00 0.00 94 1011.2
20260510082935 50 5 2.6 4.3 0.00 0.00 0.00 94 1011.1
20260510082204 50 5 2.6 4.3 0.00 0.00 0.00 94 1011.1
20260510081703 50 5 2.6 3.5 0.00 0.00 0.00 94 1011.1
20260510081205 50 5 0.9 3.5 0.00 0.00 0.00 94 1011.3
20260510080700 50 5 0.9 2.6 0.00 0.00 0.00 94 1011.3
20260510080202 50 5 1.7 5.2 0.00 0.00 0.00 94 1011.2
20260510075927 50 5 1.7 5.2 0.00 0.00 0.00 94 1011.1
20260510075158 50 5 2.6 6.1 0.00 0.00 0.00 94 1011.2
20260510074657 51 346 3.5 6.1 0.00 0.00 0.00 94 1011.3
20260510074156 51 346 3.5 5.2 0.00 0.00 0.00 94 1011.2
20260510073927 51 11 3.5 7.0 0.00 0.00 0.00 94 1011.0
20260510073429 51 5 3.5 7.8 0.00 0.00 0.00 94 1011.0
20260510072659 51 345 4.3 7.8 0.00 0.00 0.00 93 1010.9
20260510072158 51 350 3.5 5.2 0.00 0.00 0.00 93 1011.0
20260510071659 51 332 1.7 4.3 0.00 0.00 0.00 93 1010.8
20260510071154 51 335 0.9 4.3 0.00 0.00 0.00 93 1010.8
20260510070656 52 85 0.0 0.0 0.00 0.00 0.00 93 1010.7
20260510070154 52 85 0.0 0.0 0.00 0.00 0.00 93 1010.5
20260510065652 52 85 0.0 0.0 0.00 0.00 0.00 93 1010.6
20260510065154 52 85 0.0 0.0 0.00 0.00 0.00 93 1010.6
20260510064657 52 85 0.0 0.0 0.00 0.00 0.00 92 1010.7
20260510064653 52 85 0.0 0.0 0.00 0.00 0.00 93 1010.6
20260510063923 52 85 0.0 0.0 0.00 0.00 0.00 93 1010.7
20260510063153 52 85 0.0 0.0 0.00 0.00 0.00 93 1010.6
20260510062653 52 85 0.0 0.0 0.00 0.00 0.00 93 1010.7
20260510062153 52 85 0.0 0.0 0.00 0.00 0.00 93 1010.6
20260510061654 52 85 0.0 0.0 0.00 0.00 0.00 93 1010.7
20260510061154 52 85 0.0 0.0 0.00 0.00 0.00 93 1010.7
20260510060923 52 85 0.0 0.0 0.00 0.00 0.00 92 1010.6
20260510060153 53 85 0.0 0.0 0.00 0.00 0.00 92 1010.7
20260510055653 53 85 0.0 0.0 0.00 0.00 0.00 92 1010.8
20260510055424 53 85 0.0 0.0 0.00 0.00 0.00 92 1010.9
20260510054924 53 85 0.0 0.0 0.00 0.00 0.00 92 1010.8
20260510054147 53 85 0.0 0.0 0.00 0.00 0.00 92 1010.9
20260510053641 53 85 0.0 0.0 0.00 0.00 0.00 92 1011.0
20260510053135 53 85 0.0 0.0 0.00 0.00 0.00 92 1011.0
20260510052629 53 85 0.0 0.0 0.00 0.00 0.00 92 1011.0
20260510052123 53 85 0.0 0.0 0.00 0.00 0.00 92 1011.1
20260510051847 53 85 0.0 0.0 0.00 0.00 0.00 92 1011.1
20260510051111 53 85 0.0 0.0 0.00 0.00 0.00 92 1011.0
20260510050836 53 85 0.0 0.0 0.00 0.00 0.00 92 1011.1
20260510050058 53 85 0.0 0.0 0.00 0.00 0.00 92 1011.1
20260510045551 53 85 0.0 0.0 0.00 0.00 0.00 91 1011.2
20260510045045 53 85 0.0 0.0 0.00 0.00 0.00 92 1011.2
20260510044810 53 85 0.0 0.0 0.00 0.00 0.00 92 1011.3
20260510044033 53 85 0.0 0.0 0.00 0.00 0.00 91 1011.3
20260510043527 53 85 0.0 0.0 0.00 0.00 0.00 91 1011.3
20260510043253 54 85 0.0 0.0 0.00 0.00 0.00 91 1011.5
20260510042514 54 85 0.0 0.0 0.00 0.00 0.00 91 1011.4
20260510042009 54 85 0.0 0.0 0.00 0.00 0.00 91 1011.5
20260510041504 54 85 0.0 0.0 0.00 0.00 0.00 91 1011.4
20260510040957 54 85 0.0 0.0 0.00 0.00 0.00 91 1011.4
20260510040451 54 85 0.0 0.0 0.00 0.00 0.00 91 1011.6
20260510035945 54 85 0.0 0.0 0.00 0.00 0.00 91 1011.5
20260510035439 54 85 0.0 0.0 0.00 0.00 0.00 91 1011.4
20260510034933 54 85 0.0 0.0 0.00 0.00 0.00 91 1011.3
20260510034427 54 85 0.0 0.0 0.00 0.00 0.00 91 1011.2
20260510033921 54 85 0.0 0.0 0.00 0.00 0.00 91 1011.2
20260510033415 54 85 0.0 0.0 0.00 0.00 0.00 91 1011.1
20260510032908 54 85 0.0 0.0 0.00 0.00 0.00 91 1011.1
20260510032403 54 85 0.0 0.0 0.00 0.00 0.00 91 1011.1
20260510032128 54 86 0.0 0.0 0.00 0.00 0.00 91 1011.1
20260510031351 54 86 0.0 0.0 0.00 0.00 0.00 90 1011.0
20260510030845 54 86 0.0 0.0 0.00 0.00 0.00 90 1010.9
20260510030612 55 86 0.0 0.0 0.00 0.00 0.00 89 1010.9
20260510025832 55 86 0.0 0.0 0.00 0.00 0.00 90 1010.9
20260510025327 55 86 0.0 0.0 0.00 0.00 0.00 89 1011.0
20260510025052 55 86 0.0 0.0 0.00 0.00 0.00 89 1011.1
20260510024314 55 86 0.0 0.0 0.00 0.00 0.00 89 1011.1
20260510023809 55 86 0.0 0.0 0.00 0.00 0.00 89 1011.0
20260510023533 55 86 0.0 0.0 0.00 0.00 0.00 89 1010.9
20260510023029 55 86 0.0 0.0 0.00 0.00 0.00 89 1011.0
20260510022251 55 86 0.0 0.0 0.00 0.00 0.00 89 1011.0
20260510021745 55 86 0.0 0.0 0.00 0.00 0.00 89 1011.0
20260510021239 56 86 0.0 0.0 0.00 0.00 0.00 88 1010.9
20260510020733 56 86 0.0 0.0 0.00 0.00 0.00 88 1010.9
20260510020226 56 86 0.0 0.9 0.00 0.00 0.00 88 1010.8
20260510015720 56 86 0.0 0.9 0.00 0.00 0.00 88 1010.8
20260510015215 56 86 0.0 1.7 0.00 0.00 0.00 88 1010.8
20260510014709 56 86 0.9 1.7 0.00 0.00 0.00 87 1010.8
20260510014203 56 86 0.0 1.7 0.00 0.00 0.00 87 1010.7
20260510013657 56 86 0.0 1.7 0.00 0.00 0.00 87 1010.8
20260510013151 56 86 0.0 1.7 0.00 0.00 0.00 87 1010.8
20260510012645 56 86 0.9 1.7 0.00 0.00 0.00 86 1010.7
20260510012151 57 86 0.0 0.9 0.00 0.00 0.00 86 1010.8
20260510012145 57 86 0.0 1.7 0.00 0.00 0.00 86 1010.9
20260510011141 57 86 0.0 0.9 0.00 0.00 0.00 86 1010.7
20260510010910 57 86 0.0 0.9 0.00 0.00 0.00 86 1010.6
20260510010136 57 86 0.0 1.7 0.00 0.00 0.00 85 1010.6
20260510005636 57 86 0.9 2.6 0.00 0.00 0.00 85 1010.5
20260510005143 57 86 0.9 2.6 0.00 0.00 0.00 85 1010.4
20260510005136 57 86 0.9 2.6 0.00 0.00 0.00 85 1010.5
20260510004132 57 86 0.9 2.6 0.00 0.00 0.00 85 1010.5
20260510003630 58 86 0.9 2.6 0.00 0.00 0.00 85 1010.5
20260510003127 58 86 0.9 2.6 0.00 0.00 0.00 85 1010.5
20260510002628 58 61 0.9 1.7 0.00 0.00 0.00 84 1010.6
20260510002128 58 61 0.9 1.7 0.00 0.00 0.00 84 1010.5
20260510001629 58 61 0.0 2.6 0.00 0.00 0.00 84 1010.5
20260510001130 58 61 0.9 2.6 0.00 0.00 0.00 84 1010.6
20260510000628 58 61 0.9 2.6 0.00 0.00 0.00 84 1010.5
20260510000129 58 61 1.7 2.6 0.00 0.00 0.00 83 1010.4
20260509235629 58 61 1.7 2.6 0.00 0.00 0.00 83 1010.4
20260509235129 58 61 0.9 2.6 0.00 0.00 0.00 83 1010.3
20260509234629 59 61 0.9 2.6 0.00 0.00 0.00 83 1010.5
20260509234126 59 61 1.7 3.5 0.00 0.00 0.00 82 1010.5
20260509233626 59 66 2.6 7.0 0.00 0.00 0.00 82 1010.4
20260509233127 59 89 3.5 7.0 0.00 0.00 0.00 82 1010.2
20260509232855 59 69 2.6 6.1 0.00 0.00 0.00 82 1010.1
20260509232124 59 80 2.6 6.1 0.00 0.00 0.00 82 1010.1
20260509231624 59 105 2.6 6.1 0.00 0.00 0.00 82 1010.1
20260509231123 59 105 2.6 6.1 0.00 0.00 0.00 82 1010.0
20260509230625 59 87 3.5 7.0 0.00 0.00 0.00 82 1010.0
20260509230123 59 116 3.5 7.0 0.00 0.00 0.00 82 1009.9